CheckWX is a tool to help pilots better visualize weather data.  It is not intended as a substitute for an official pre-flight weather briefing.

22:39:18 UTC

KLIT TAF
Bill and Hillary Clinton National / Adams Field Airport
Little Rock, Arkansas, USA
KLIT 072323Z 0800/0824 VRB05KT P6SM VCTS SCT040CB SCT110 FM080200 VRB03KT P6SM SCT250 FM081200 VRB03KT P6SM BKN025 FM081800 16007KT P6SM VCSH SCT040 BKN100

Jul-8@
00:00 UTC

Jul-8 @ 00:00 UTC

Jul-8@
02:00 UTC

Jul-8 @ 02:00 UTC

TAF KLIT 072323Z 0800/0824 VRB05KT P6SM VCTS SCT040CB SCT110

Expired

Wind
  • Variable at 5 KTS
Conditions
Area Thunderstorm
Cloud Levels
  • Scattered at 4,000' AGL
  • Scattered at 11,000' AGL

Jul-8@
02:00 UTC

Jul-8 @ 02:00 UTC

Jul-8@
12:00 UTC

Jul-8 @ 12:00 UTC

FM080200 VRB03KT P6SM SCT250

Expired

Wind
  • Variable at 3 KTS
Cloud Levels
  • Scattered at 25,000' AGL

Jul-8@
12:00 UTC

Jul-8 @ 12:00 UTC

Jul-8@
18:00 UTC

Jul-8 @ 18:00 UTC

FM081200 VRB03KT P6SM BKN025

Expired

Wind
  • Variable at 3 KTS
Cloud Levels
  • Broken at 2,500' AGL

Jul-8@
18:00 UTC

Jul-8 @ 18:00 UTC

Jul-9@
00:00 UTC

Jul-9 @ 00:00 UTC

FM081800 16007KT P6SM VCSH SCT040 BKN100

From

From Standard forecast or significant change

Wind
  • 160° at 7 KTS
Conditions
Area Showers
Cloud Levels
  • Scattered at 4,000' AGL
  • Broken at 10,000' AGL